createdAt,value
2019-05-15T00:00:11.377Z,102545.35
2019-05-15T00:03:38.819Z,102544.39
2019-05-15T00:07:01.173Z,102547.73
2019-05-15T00:10:24.352Z,102546.31
2019-05-15T00:13:48.321Z,102541.20
2019-05-15T00:17:11.864Z,102545.50
2019-05-15T00:20:34.994Z,102546.31
2019-05-15T00:23:59.420Z,102544.67
2019-05-15T00:27:23.813Z,102536.50
2019-05-15T00:30:48.108Z,102531.98
2019-05-15T00:34:13.009Z,102539.34
2019-05-15T00:37:38.536Z,102528.80
2019-05-15T00:41:01.494Z,102529.33
2019-05-15T00:44:25.014Z,102524.68
2019-05-15T00:47:48.812Z,102527.86
2019-05-15T00:51:14.760Z,102535.09
2019-05-15T00:54:38.843Z,102525.83
2019-05-15T00:58:02.187Z,102519.96
2019-05-15T01:01:25.765Z,102521.59
2019-05-15T01:04:48.849Z,102519.42
2019-05-15T01:08:11.979Z,102516.33
2019-05-15T01:11:38.203Z,102513.95
2019-05-15T01:15:01.403Z,102514.97
2019-05-15T01:18:25.023Z,102504.17
2019-05-15T01:21:48.498Z,102498.44
2019-05-15T01:25:12.009Z,102498.48
2019-05-15T01:28:38.603Z,102501.39
2019-05-15T01:32:02.367Z,102490.12
2019-05-15T01:35:25.549Z,102492.02
2019-05-15T01:38:48.899Z,102496.09
2019-05-15T01:42:13.204Z,102490.27
2019-05-15T01:45:39.063Z,102488.50
2019-05-15T01:49:02.832Z,102489.84
2019-05-15T01:52:27.933Z,102487.21
2019-05-15T01:55:51.267Z,102496.16
2019-05-15T01:59:14.472Z,102506.88
2019-05-15T02:02:38.896Z,102503.39
2019-05-15T02:06:02.482Z,102506.44
2019-05-15T02:09:27.921Z,102502.89
2019-05-15T02:12:50.551Z,102496.77
2019-05-15T02:16:13.695Z,102508.48
2019-05-15T02:19:39.172Z,102499.92
2019-05-15T02:23:02.518Z,102505.47
2019-05-15T02:26:27.999Z,102507.69
2019-05-15T02:29:50.917Z,102499.08
2019-05-15T02:33:14.162Z,102505.62
2019-05-15T02:36:39.983Z,102509.91
2019-05-15T02:40:02.502Z,102498.80
2019-05-15T02:43:25.809Z,102509.08
2019-05-15T02:46:49.929Z,102505.95
2019-05-15T02:50:13.785Z,102498.93
2019-05-15T02:53:39.594Z,102501.00
2019-05-15T02:57:01.942Z,102496.23
2019-05-15T03:00:37.763Z,102499.69
2019-05-15T03:03:50.516Z,102494.13
2019-05-15T03:07:13.683Z,102493.00
2019-05-15T03:10:39.968Z,102501.87
2019-05-15T03:14:02.314Z,102496.75
2019-05-15T03:17:29.430Z,102500.96
2019-05-15T03:20:51.844Z,102500.44
2019-05-15T03:24:15.076Z,102497.28
2019-05-15T03:27:39.476Z,102499.94
2019-05-15T03:31:22.398Z,102501.03
2019-05-15T03:34:36.541Z,102501.15
2019-05-15T03:37:53.380Z,102507.16
2019-05-15T03:41:19.486Z,102511.47
2019-05-15T03:44:41.772Z,102508.67
2019-05-15T03:48:05.104Z,102510.34
2019-05-15T03:51:28.940Z,102507.84
2019-05-15T03:54:52.757Z,102505.62
2019-05-15T03:58:20.880Z,102504.83
2019-05-15T04:01:43.869Z,102502.75
2019-05-15T04:05:06.363Z,102503.53
2019-05-15T04:08:30.342Z,102511.50
2019-05-15T04:11:53.739Z,102514.37
2019-05-15T04:15:18.779Z,102513.69
2019-05-15T04:18:42.326Z,102515.59
2019-05-15T04:22:08.966Z,102515.71
2019-05-15T04:25:39.124Z,102510.97
2019-05-15T04:29:02.721Z,102513.95
2019-05-15T04:32:28.594Z,102509.44
2019-05-15T04:35:50.842Z,102516.84
2019-05-15T04:39:14.235Z,102518.73
2019-05-15T04:42:39.773Z,102514.41
2019-05-15T04:46:03.021Z,102509.56
2019-05-15T04:49:29.058Z,102506.81
2019-05-15T04:52:51.738Z,102504.78
2019-05-15T04:56:15.096Z,102505.06
2019-05-15T04:59:38.970Z,102497.83
2019-05-15T05:03:02.672Z,102506.34
2019-05-15T05:06:29.240Z,102499.17
2019-05-15T05:09:51.422Z,102497.69
2019-05-15T05:13:14.655Z,102495.80
2019-05-15T05:16:39.333Z,102494.18
2019-05-15T05:20:03.396Z,102491.92
2019-05-15T05:23:28.336Z,102497.16
2019-05-15T05:26:54.753Z,102496.34
2019-05-15T05:30:19.084Z,102503.12
2019-05-15T05:33:45.950Z,102504.17
2019-05-15T05:37:09.743Z,102517.70
2019-05-15T05:40:33.079Z,102510.77
2019-05-15T05:43:58.574Z,102517.61
2019-05-15T05:47:21.846Z,102513.33
2019-05-15T05:50:45.119Z,102515.61
2019-05-15T05:54:08.507Z,102511.71
2019-05-15T05:57:31.841Z,102510.15
2019-05-15T06:00:54.995Z,102516.11
2019-05-15T06:04:18.709Z,102513.81
2019-05-15T06:07:42.530Z,102514.10
2019-05-15T06:11:05.811Z,102513.22
2019-05-15T06:14:29.087Z,102515.20
2019-05-15T06:17:52.251Z,102515.71
2019-05-15T06:21:17.898Z,102515.44
2019-05-15T06:24:41.426Z,102521.94
2019-05-15T06:28:04.890Z,102521.25
2019-05-15T06:31:28.228Z,102526.79
2019-05-15T06:34:52.109Z,102523.88
2019-05-15T06:38:15.381Z,102530.00
2019-05-15T06:41:39.150Z,102528.52
2019-05-15T06:45:02.747Z,102520.38
2019-05-15T06:48:26.069Z,102524.64
2019-05-15T06:51:49.389Z,102518.11
2019-05-15T06:55:12.555Z,102521.28
2019-05-15T06:58:38.959Z,102518.73
2019-05-15T07:02:02.109Z,102517.63
2019-05-15T07:05:25.357Z,102527.23
2019-05-15T07:08:49.641Z,102521.45
2019-05-15T07:12:13.328Z,102512.69
2019-05-15T07:15:38.433Z,102507.00
2019-05-15T07:19:01.848Z,102509.06
2019-05-15T07:22:28.763Z,102505.14
2019-05-15T07:25:51.320Z,102517.25
2019-05-15T07:29:14.619Z,102506.42
2019-05-15T07:32:39.677Z,102505.72
2019-05-15T07:36:02.959Z,102497.98
2019-05-15T07:39:28.843Z,102503.36
2019-05-15T07:42:52.584Z,102499.03
2019-05-15T07:46:15.767Z,102503.73
2019-05-15T07:49:39.081Z,102502.47
2019-05-15T07:53:02.891Z,102503.66
2019-05-15T07:56:26.160Z,102500.07
2019-05-15T07:59:49.745Z,102493.50
2019-05-15T08:03:13.105Z,102493.02
2019-05-15T08:06:38.862Z,102489.48
2019-05-15T08:10:11.078Z,102484.45
2019-05-15T08:13:34.303Z,102484.22
2019-05-15T08:16:59.223Z,102480.41
2019-05-15T08:20:23.676Z,102478.52
2019-05-15T08:23:48.486Z,102478.34
2019-05-15T08:27:12.019Z,102477.29
2019-05-15T08:30:35.397Z,102475.05
2019-05-15T08:34:12.351Z,102477.14
2019-05-15T08:37:23.964Z,102475.20
2019-05-15T08:40:49.025Z,102471.02
2019-05-15T08:44:18.596Z,102464.84
2019-05-15T08:47:42.635Z,102459.41
2019-05-15T08:51:08.499Z,102460.70
2019-05-15T08:54:31.236Z,102453.87
2019-05-15T08:57:55.959Z,102448.62
2019-05-15T09:01:20.602Z,102447.20
2019-05-15T09:04:44.097Z,102434.93
2019-05-15T09:08:09.324Z,102436.87
2019-05-15T09:11:32.519Z,102428.21
2019-05-15T09:14:58.092Z,102439.80
2019-05-15T09:18:21.107Z,102431.62
2019-05-15T09:21:44.333Z,102433.09
2019-05-15T09:25:10.058Z,102433.67
2019-05-15T09:28:33.261Z,102425.86
2019-05-15T09:31:58.681Z,102423.77
2019-05-15T09:35:22.575Z,102417.27
2019-05-15T09:38:46.022Z,102412.03
2019-05-15T09:42:09.215Z,102408.59
2019-05-15T09:45:32.533Z,102400.77
2019-05-15T09:48:55.895Z,102402.75
2019-05-15T09:52:22.694Z,102396.32
2019-05-15T09:55:44.420Z,102395.87
2019-05-15T09:59:08.864Z,102386.52
2019-05-15T10:02:32.954Z,102388.16
2019-05-15T10:05:56.172Z,102385.84
2019-05-15T10:09:19.422Z,102385.47
2019-05-15T10:12:42.753Z,102385.73
2019-05-15T10:16:08.202Z,102377.00
2019-05-15T10:19:31.524Z,102371.56
2019-05-15T10:22:54.946Z,102377.36
2019-05-15T10:26:19.241Z,102368.30
2019-05-15T10:29:48.273Z,102364.14
2019-05-15T10:33:11.120Z,102356.20
2019-05-15T10:36:34.460Z,102353.81
2019-05-15T10:39:58.521Z,102357.86
2019-05-15T10:43:21.956Z,102344.94
2019-05-15T10:46:48.072Z,102349.92
2019-05-15T10:50:12.261Z,102350.77
2019-05-15T10:53:35.467Z,102340.40
2019-05-15T10:57:00.798Z,102343.54
2019-05-15T11:00:24.116Z,102333.02
2019-05-15T11:03:49.509Z,102333.14
2019-05-15T11:07:13.159Z,102337.69
2019-05-15T11:10:38.670Z,102328.86
2019-05-15T11:14:01.351Z,102326.24
2019-05-15T11:17:24.999Z,102313.03
2019-05-15T11:20:48.958Z,102321.54
2019-05-15T11:24:12.554Z,102322.91
2019-05-15T11:27:35.888Z,102315.80
2019-05-15T11:30:59.553Z,102306.35
2019-05-15T11:34:23.006Z,102311.61
2019-05-15T11:37:48.796Z,102300.28
2019-05-15T11:41:11.630Z,102305.13
2019-05-15T11:44:34.814Z,102300.86
2019-05-15T11:48:01.009Z,102288.31
2019-05-15T11:51:23.398Z,102287.87
2019-05-15T11:54:49.367Z,102277.94
2019-05-15T11:58:11.956Z,102275.73
2019-05-15T12:01:35.349Z,102269.10
2019-05-15T12:04:59.022Z,102270.59
2019-05-15T12:08:22.303Z,102266.26
2019-05-15T12:11:46.059Z,102263.02
2019-05-15T12:15:09.626Z,102259.52
2019-05-15T12:18:33.219Z,102244.31
2019-05-15T12:21:59.812Z,102249.80
2019-05-15T12:25:22.083Z,102256.63
2019-05-15T12:28:45.375Z,102236.20
2019-05-15T12:32:23.408Z,102250.14
2019-05-15T12:35:34.329Z,102244.67
2019-05-15T12:38:57.607Z,102236.17
2019-05-15T12:59:44.627Z,102224.25
2019-05-15T13:02:52.125Z,102238.86
2019-05-15T13:06:19.046Z,102228.50
2019-05-15T13:09:41.624Z,102221.80
2019-05-15T13:13:08.854Z,102221.52
2019-05-15T13:16:31.347Z,102215.85
2019-05-15T13:19:54.765Z,102214.27
2019-05-15T13:23:17.986Z,102206.37
2019-05-15T13:26:41.278Z,102202.95
2019-05-15T13:30:05.626Z,102200.41
2019-05-15T13:33:28.820Z,102195.46
2019-05-15T13:36:52.557Z,102189.50
2019-05-15T13:40:18.451Z,102193.06
2019-05-15T13:43:41.132Z,102173.61
2019-05-15T13:47:04.340Z,102183.64
2019-05-15T13:50:28.508Z,102174.34
2019-05-15T13:53:53.654Z,102178.11
2019-05-15T13:57:18.077Z,102170.22
2019-05-15T14:00:42.588Z,102164.49
2019-05-15T14:04:08.381Z,102162.52
2019-05-15T14:07:45.003Z,102166.86
2019-05-15T14:10:58.240Z,102159.72
2019-05-15T14:14:21.549Z,102168.02
2019-05-15T14:17:44.996Z,102155.86
2019-05-15T14:21:08.899Z,102162.94
2019-05-15T14:24:32.720Z,102152.30
2019-05-15T14:27:55.920Z,102146.44
2019-05-15T14:31:19.090Z,102148.66
2019-05-15T14:34:42.292Z,102140.59
2019-05-15T14:38:06.882Z,102122.58
2019-05-15T14:41:31.068Z,102120.01
2019-05-15T14:44:54.451Z,102129.11
2019-05-15T14:48:19.077Z,102122.75
2019-05-15T14:51:42.488Z,102114.21
2019-05-15T14:55:06.144Z,102113.61
2019-05-15T14:58:29.425Z,102121.11
2019-05-15T15:01:53.871Z,102118.59
2019-05-15T15:05:21.735Z,102106.21
2019-05-15T15:08:42.177Z,102090.83
2019-05-15T15:12:08.036Z,102088.73
2019-05-15T15:15:31.307Z,102095.08
2019-05-15T15:18:55.003Z,102104.34
2019-05-15T15:22:18.536Z,102095.25
2019-05-15T15:25:42.149Z,102083.09
2019-05-15T15:29:05.502Z,102076.36
2019-05-15T15:32:28.860Z,102074.68
2019-05-15T15:35:52.240Z,102082.09
2019-05-15T15:39:15.522Z,102079.77
2019-05-15T15:42:39.693Z,102082.61
2019-05-15T15:46:03.126Z,102079.88
2019-05-15T15:49:27.953Z,102067.05
2019-05-15T15:52:51.795Z,102065.88
2019-05-15T15:56:15.102Z,102068.00
2019-05-15T15:59:38.807Z,102065.34
2019-05-15T16:03:04.126Z,102060.81
2019-05-15T16:06:29.379Z,102059.98
2019-05-15T16:09:53.921Z,102064.68
2019-05-15T16:13:18.674Z,102065.23
2019-05-15T16:16:42.491Z,102067.80
2019-05-15T16:20:06.514Z,102056.52
2019-05-15T16:23:29.861Z,102058.01
2019-05-15T16:26:53.712Z,102055.32
2019-05-15T16:30:18.760Z,102050.02
2019-05-15T16:33:42.334Z,102045.02
2019-05-15T16:37:05.646Z,102044.77
2019-05-15T16:40:28.947Z,102042.18
2019-05-15T16:43:52.190Z,102039.06
2019-05-15T16:47:15.480Z,102034.91
2019-05-15T16:50:38.883Z,102040.28
2019-05-15T16:54:02.099Z,102042.34
2019-05-15T16:57:25.239Z,102039.23
2019-05-15T17:00:49.691Z,102031.95
2019-05-15T17:04:13.036Z,102029.87
2019-05-15T17:07:38.865Z,102036.73
2019-05-15T17:11:01.499Z,102033.70
2019-05-15T17:14:24.884Z,102032.94
2019-05-15T17:17:48.762Z,102032.30
2019-05-15T17:21:13.197Z,102033.47
2019-05-15T17:24:38.696Z,102037.70
2019-05-15T17:28:01.785Z,102029.39
2019-05-15T17:31:28.588Z,102032.13
2019-05-15T17:34:52.088Z,102030.03
2019-05-15T17:38:15.388Z,102024.48
2019-05-15T17:41:39.035Z,102021.89
2019-05-15T17:45:02.910Z,102017.56
2019-05-15T17:48:28.812Z,102017.64
2019-05-15T17:51:52.483Z,102021.30
2019-05-15T17:55:18.224Z,102031.05
2019-05-15T17:58:41.171Z,102023.02
2019-05-15T18:02:08.701Z,102022.03
2019-05-15T18:05:32.082Z,102021.45
2019-05-15T18:08:55.263Z,102026.14
2019-05-15T18:12:18.537Z,102025.59
2019-05-15T18:15:41.965Z,102029.19
2019-05-15T18:19:05.380Z,102031.31
2019-05-15T18:22:29.406Z,102031.69
2019-05-15T18:25:53.882Z,102030.59
2019-05-15T18:29:17.302Z,102029.94
2019-05-15T18:32:40.917Z,102030.16
2019-05-15T18:36:04.822Z,102030.92
2019-05-15T18:39:28.471Z,102033.77
2019-05-15T18:42:52.177Z,102032.51
2019-05-15T18:46:18.151Z,102030.37
2019-05-15T18:49:41.441Z,102035.50
2019-05-15T18:53:04.665Z,102035.23
2019-05-15T18:56:29.756Z,102028.86
2019-05-15T18:59:57.916Z,102025.02
2019-05-15T19:03:22.851Z,102029.25
2019-05-15T19:06:46.032Z,102022.08
2019-05-15T19:10:09.901Z,102024.49
2019-05-15T19:13:35.552Z,102026.97
2019-05-15T19:16:59.312Z,102021.41
2019-05-15T19:20:23.635Z,102021.92
2019-05-15T19:23:47.956Z,102019.16
2019-05-15T19:27:12.102Z,102018.66
2019-05-15T19:30:35.507Z,102015.19
2019-05-15T19:33:59.966Z,102015.91
2019-05-15T19:37:24.087Z,102016.77
2019-05-15T19:40:47.932Z,102008.06
2019-05-15T19:44:12.319Z,102010.94
2019-05-15T19:47:38.415Z,102010.62
2019-05-15T19:51:01.571Z,102012.14
2019-05-15T19:54:25.371Z,102017.30
2019-05-15T19:57:48.962Z,102021.27
2019-05-15T20:01:13.353Z,102021.77
2019-05-15T20:04:38.557Z,102022.09
2019-05-15T20:08:02.468Z,102020.78
2019-05-15T20:11:27.770Z,102018.74
2019-05-15T20:14:51.571Z,102018.17
2019-05-15T20:18:18.270Z,102021.38
2019-05-15T20:21:41.625Z,102024.52
2019-05-15T20:25:08.062Z,102021.42
2019-05-15T20:28:31.247Z,102018.52
2019-05-15T20:31:55.912Z,102020.70
2019-05-15T20:35:20.293Z,102024.92
2019-05-15T20:38:44.066Z,102022.36
2019-05-15T20:42:08.858Z,102019.47
2019-05-15T20:45:32.338Z,102022.60
2019-05-15T20:48:58.118Z,102019.94
2019-05-15T20:52:22.079Z,102014.63
2019-05-15T20:55:48.303Z,102011.48
2019-05-15T20:59:11.211Z,102006.72
2019-05-15T21:02:34.761Z,102007.62
2019-05-15T21:06:00.852Z,102010.84
2019-05-15T21:09:23.395Z,102006.42
2019-05-15T21:12:48.623Z,101997.97
2019-05-15T21:16:12.070Z,101995.36
2019-05-15T21:19:35.320Z,101998.73
2019-05-15T21:23:01.430Z,101998.36
2019-05-15T21:26:23.998Z,101989.55
2019-05-15T21:29:49.037Z,101980.81
2019-05-15T21:33:12.783Z,101983.53
2019-05-15T21:36:39.203Z,101984.68
2019-05-15T21:40:04.209Z,101975.70
2019-05-15T21:43:27.546Z,101973.75
2019-05-15T21:46:50.813Z,101978.22
2019-05-15T21:50:15.307Z,101971.33
2019-05-15T21:53:39.575Z,101978.61
2019-05-15T21:57:18.850Z,101975.02
2019-05-15T22:00:35.174Z,101968.72
2019-05-15T22:03:59.030Z,101974.12
2019-05-15T22:07:22.227Z,101963.75
2019-05-15T22:10:48.031Z,101963.39
2019-05-15T22:14:10.660Z,101962.62
2019-05-15T22:17:33.865Z,101964.20
2019-05-15T22:20:58.539Z,101964.23
2019-05-15T22:24:22.011Z,101963.81
2019-05-15T22:27:45.545Z,101956.47
2019-05-15T22:31:09.076Z,101960.02
2019-05-15T22:34:32.374Z,101957.41
2019-05-15T22:37:55.527Z,101953.60
2019-05-15T22:41:19.177Z,101956.69
2019-05-15T22:44:42.670Z,101951.43
2019-05-15T22:48:05.851Z,101942.73
2019-05-15T22:51:29.224Z,101943.30
2019-05-15T22:54:52.598Z,101946.01
2019-05-15T22:58:16.240Z,101943.53
2019-05-15T23:01:39.489Z,101939.09
2019-05-15T23:05:02.712Z,101941.23
2019-05-15T23:08:25.852Z,101937.19
2019-05-15T23:11:49.457Z,101940.56
2019-05-15T23:15:12.943Z,101936.19
2019-05-15T23:18:36.283Z,101936.66
2019-05-15T23:21:59.888Z,101936.33
2019-05-15T23:25:23.109Z,101932.37
2019-05-15T23:28:48.187Z,101928.15
2019-05-15T23:32:11.494Z,101930.09
2019-05-15T23:35:38.218Z,101930.93
2019-05-15T23:38:59.887Z,101925.19
2019-05-15T23:42:23.201Z,101929.28
2019-05-15T23:45:48.358Z,101924.44
2019-05-15T23:49:11.549Z,101926.84
2019-05-15T23:52:35.547Z,101927.56
2019-05-15T23:55:58.978Z,101920.20
2019-05-15T23:59:22.224Z,101918.79
